createdAt,value
2018-07-13T00:00:21.582Z,67.86
2018-07-13T00:02:50.769Z,67.63
2018-07-13T00:05:19.984Z,67.60
2018-07-13T00:07:49.165Z,67.89
2018-07-13T00:10:18.283Z,67.69
2018-07-13T00:12:47.532Z,67.67
2018-07-13T00:15:16.683Z,67.88
2018-07-13T00:17:45.939Z,67.49
2018-07-13T00:20:15.154Z,67.68
2018-07-13T00:22:44.338Z,67.54
2018-07-13T00:25:13.503Z,67.83
2018-07-13T00:27:42.669Z,67.84
2018-07-13T00:30:11.836Z,67.48
2018-07-13T00:32:40.973Z,67.40
2018-07-13T00:35:10.084Z,67.41
2018-07-13T00:37:39.230Z,67.30
2018-07-13T00:40:08.363Z,67.40
2018-07-13T00:42:37.487Z,67.09
2018-07-13T00:45:06.661Z,66.73
2018-07-13T00:47:35.767Z,66.58
2018-07-13T00:50:04.764Z,66.44
2018-07-13T00:52:33.886Z,66.50
2018-07-13T00:55:03.070Z,66.79
2018-07-13T00:57:32.776Z,66.59
2018-07-13T01:00:01.969Z,66.69
2018-07-13T01:02:31.220Z,66.88
2018-07-13T01:05:00.384Z,66.92
2018-07-13T01:07:29.559Z,66.99
2018-07-13T01:09:58.708Z,67.30
2018-07-13T01:12:27.861Z,67.50
2018-07-13T01:14:58.065Z,67.62
2018-07-13T01:17:27.206Z,67.71
2018-07-13T01:19:56.378Z,67.86
2018-07-13T01:22:25.505Z,68.14
2018-07-13T01:24:54.661Z,68.39
2018-07-13T01:27:28.106Z,68.63
2018-07-13T01:29:58.152Z,69.01
2018-07-13T01:32:27.762Z,69.14
2018-07-13T01:34:59.392Z,69.19
2018-07-13T01:37:28.530Z,69.32
2018-07-13T01:39:57.714Z,69.78
2018-07-13T01:42:27.092Z,69.95
2018-07-13T01:44:56.217Z,69.93
2018-07-13T01:47:25.374Z,70.01
2018-07-13T01:49:54.560Z,70.06
2018-07-13T01:52:24.396Z,70.26
2018-07-13T01:54:54.507Z,70.10
2018-07-13T01:57:23.641Z,70.11
2018-07-13T01:59:52.847Z,70.26
2018-07-13T02:02:21.996Z,70.26
2018-07-13T02:04:51.123Z,70.25
2018-07-13T02:07:20.292Z,70.34
2018-07-13T02:09:52.041Z,70.51
2018-07-13T02:12:21.300Z,70.28
2018-07-13T02:14:50.758Z,70.44
2018-07-13T02:17:19.892Z,70.47
2018-07-13T02:19:49.087Z,70.68
2018-07-13T02:22:18.048Z,70.55
2018-07-13T02:24:47.301Z,70.72
2018-07-13T02:27:17.190Z,70.47
2018-07-13T02:29:46.311Z,70.47
2018-07-13T02:32:15.444Z,70.75
2018-07-13T02:34:44.596Z,70.44
2018-07-13T02:37:13.733Z,70.31
2018-07-13T02:39:48.763Z,70.30
2018-07-13T02:42:17.895Z,70.34
2018-07-13T02:44:47.053Z,70.07
2018-07-13T02:47:16.225Z,69.91
2018-07-13T02:49:45.396Z,70.30
2018-07-13T02:52:14.552Z,70.02
2018-07-13T02:54:43.729Z,70.00
2018-07-13T02:57:12.884Z,69.99
2018-07-13T02:59:42.022Z,69.92
2018-07-13T03:02:11.133Z,70.24
2018-07-13T03:04:40.248Z,70.17
2018-07-13T03:07:09.411Z,70.09
2018-07-13T03:09:38.557Z,70.15
2018-07-13T03:12:07.827Z,70.07
2018-07-13T03:14:36.956Z,69.79
2018-07-13T03:17:06.111Z,69.85
2018-07-13T03:19:35.308Z,69.64
2018-07-13T03:22:04.502Z,69.79
2018-07-13T03:24:33.659Z,69.71
2018-07-13T03:27:02.790Z,69.67
2018-07-13T03:29:31.947Z,69.60
2018-07-13T03:32:01.126Z,69.38
2018-07-13T03:34:30.327Z,68.99
2018-07-13T03:36:59.488Z,68.93
2018-07-13T03:39:28.595Z,68.52
2018-07-13T03:41:57.707Z,68.16
2018-07-13T03:44:26.834Z,67.88
2018-07-13T03:46:56.052Z,68.05
2018-07-13T03:49:25.206Z,67.50
2018-07-13T03:51:54.397Z,67.21
2018-07-13T03:54:23.570Z,67.28
2018-07-13T03:56:52.713Z,66.75
2018-07-13T03:59:21.867Z,66.51
2018-07-13T04:01:51.033Z,66.17
2018-07-13T04:04:20.225Z,66.09
2018-07-13T04:06:49.381Z,65.94
2018-07-13T04:09:18.630Z,65.74
2018-07-13T04:11:47.774Z,65.69
2018-07-13T04:14:16.912Z,65.77
2018-07-13T04:16:46.077Z,65.46
2018-07-13T04:19:15.171Z,65.31
2018-07-13T04:21:44.312Z,65.23
2018-07-13T04:24:13.433Z,64.99
2018-07-13T04:26:45.275Z,64.88
2018-07-13T04:29:14.406Z,64.69
2018-07-13T04:31:43.547Z,64.37
2018-07-13T04:34:12.761Z,63.88
2018-07-13T04:36:41.922Z,64.05
2018-07-13T04:39:12.659Z,63.63
2018-07-13T04:41:42.037Z,63.26
2018-07-13T04:44:11.155Z,63.10
2018-07-13T04:46:40.326Z,62.66
2018-07-13T04:49:09.479Z,62.45
2018-07-13T04:51:38.631Z,61.87
2018-07-13T04:54:07.792Z,62.23
2018-07-13T04:56:36.917Z,62.19
2018-07-13T04:59:06.189Z,61.70
2018-07-13T05:01:35.293Z,61.33
2018-07-13T05:04:04.440Z,61.89
2018-07-13T05:06:40.354Z,61.42
2018-07-13T05:09:09.902Z,61.02
2018-07-13T05:11:39.071Z,61.08
2018-07-13T05:14:08.170Z,61.23
2018-07-13T05:16:37.299Z,60.85
2018-07-13T05:19:06.512Z,60.82
2018-07-13T05:21:35.647Z,61.17
2018-07-13T05:24:04.735Z,60.57
2018-07-13T05:26:33.860Z,60.50
2018-07-13T05:29:03.004Z,59.79
2018-07-13T05:31:32.110Z,60.05
2018-07-13T05:34:01.254Z,60.05
2018-07-13T05:36:30.394Z,60.06
2018-07-13T05:38:59.543Z,59.76
2018-07-13T05:41:28.652Z,59.95
2018-07-13T05:43:57.796Z,59.44
2018-07-13T05:46:26.973Z,59.61
2018-07-13T05:48:56.120Z,58.68
2018-07-13T05:51:28.911Z,58.90
2018-07-13T05:53:57.884Z,51.55
2018-07-13T05:56:27.039Z,47.35
2018-07-13T05:58:56.315Z,41.59
2018-07-13T06:01:25.448Z,39.94
2018-07-13T06:03:54.614Z,38.24
2018-07-13T06:06:23.787Z,38.25
2018-07-13T06:08:53.017Z,39.56
2018-07-13T06:11:22.148Z,39.02
2018-07-13T06:13:51.313Z,37.21
2018-07-13T06:16:20.476Z,37.61
2018-07-13T06:18:49.625Z,38.04
2018-07-13T06:21:18.751Z,33.88
2018-07-13T06:23:47.937Z,34.74
2018-07-13T06:26:17.078Z,32.45
2018-07-13T06:28:46.207Z,33.84
2018-07-13T06:31:15.347Z,33.65
2018-07-13T06:33:44.484Z,36.61
2018-07-13T06:36:13.629Z,39.73
2018-07-13T06:38:42.818Z,38.43
2018-07-13T06:41:11.935Z,35.51
2018-07-13T06:43:41.161Z,37.29
2018-07-13T06:46:10.331Z,36.12
2018-07-13T06:48:39.478Z,36.77
2018-07-13T06:51:08.720Z,34.27
2018-07-13T06:53:38.066Z,37.29
2018-07-13T06:56:07.230Z,42.90
2018-07-13T06:58:53.589Z,46.26
2018-07-13T07:01:22.754Z,47.26
2018-07-13T07:04:26.579Z,48.58
2018-07-13T07:06:56.252Z,50.85
2018-07-13T07:09:26.448Z,51.35
2018-07-13T07:13:09.515Z,52.92
2018-07-13T07:15:38.976Z,54.79
2018-07-13T07:18:08.157Z,54.93
2018-07-13T07:20:37.296Z,55.13
2018-07-13T07:23:06.459Z,54.96
2018-07-13T07:25:35.615Z,54.74
2018-07-13T07:28:04.737Z,55.21
2018-07-13T07:30:33.896Z,53.81
2018-07-13T07:33:03.046Z,52.46
2018-07-13T07:35:32.199Z,52.48
2018-07-13T07:38:01.119Z,52.22
2018-07-13T07:40:30.542Z,52.95
2018-07-13T07:42:59.704Z,52.08
2018-07-13T07:45:28.847Z,50.42
2018-07-13T07:47:57.978Z,49.90
2018-07-13T07:50:27.088Z,48.95
2018-07-13T07:52:56.240Z,48.47
2018-07-13T07:55:25.388Z,48.37
2018-07-13T07:57:54.521Z,47.57
2018-07-13T08:00:23.666Z,48.91
2018-07-13T08:02:53.073Z,49.83
2018-07-13T08:05:22.209Z,49.64
2018-07-13T08:07:51.749Z,47.10
2018-07-13T08:10:20.934Z,48.45
2018-07-13T08:12:50.322Z,48.52
2018-07-13T08:15:19.482Z,48.21
2018-07-13T08:17:48.672Z,47.08
2018-07-13T08:20:24.564Z,48.63
2018-07-13T08:22:57.466Z,47.75
2018-07-13T08:25:27.579Z,47.36
2018-07-13T08:28:00.725Z,47.17
2018-07-13T08:30:43.256Z,48.32
2018-07-13T08:33:12.602Z,48.27
2018-07-13T08:35:41.717Z,48.67
2018-07-13T08:38:10.855Z,48.26
2018-07-13T08:40:40.037Z,47.16
2018-07-13T08:43:09.161Z,46.44
2018-07-13T08:45:38.291Z,46.29
2018-07-13T08:48:07.493Z,46.92
2018-07-13T08:50:36.684Z,42.88
2018-07-13T08:53:05.989Z,36.68
2018-07-13T08:55:35.121Z,33.20
2018-07-13T08:58:04.285Z,32.80
2018-07-13T09:00:33.470Z,32.87
2018-07-13T09:03:02.580Z,30.92
2018-07-13T09:05:31.759Z,30.86
2018-07-13T09:08:00.913Z,31.11
2018-07-13T09:10:30.037Z,31.40
2018-07-13T09:12:59.358Z,31.75
2018-07-13T09:15:28.416Z,31.63
2018-07-13T09:17:57.575Z,31.76
2018-07-13T09:20:26.702Z,31.34
2018-07-13T09:22:55.821Z,32.63
2018-07-13T09:25:24.984Z,29.39
2018-07-13T09:27:54.116Z,30.44
2018-07-13T09:30:23.261Z,31.75
2018-07-13T09:32:52.411Z,31.46
2018-07-13T09:35:21.517Z,29.95
2018-07-13T09:37:50.818Z,32.80
2018-07-13T09:40:19.929Z,31.12
2018-07-13T09:42:49.074Z,30.30
2018-07-13T09:45:18.244Z,29.66
2018-07-13T09:47:47.433Z,31.21
2018-07-13T09:50:16.586Z,30.59
2018-07-13T09:52:45.727Z,30.78
2018-07-13T09:55:14.875Z,29.98
2018-07-13T09:57:44.017Z,31.91
2018-07-13T10:00:13.925Z,30.40
2018-07-13T10:02:42.872Z,30.05
2018-07-13T10:05:12.351Z,31.84
2018-07-13T10:07:41.525Z,32.17
2018-07-13T10:10:10.941Z,29.79
2018-07-13T10:12:40.258Z,32.31
2018-07-13T10:15:09.779Z,33.16
2018-07-13T10:17:38.975Z,32.03
2018-07-13T10:20:08.133Z,31.33
2018-07-13T10:22:37.692Z,31.78
2018-07-13T10:25:06.927Z,31.39
2018-07-13T10:27:38.683Z,31.92
2018-07-13T10:30:11.908Z,33.75
2018-07-13T10:32:42.763Z,37.05
2018-07-13T10:35:11.936Z,38.67
2018-07-13T10:37:42.070Z,38.89
2018-07-13T10:40:12.124Z,38.78
2018-07-13T10:42:41.362Z,39.85
2018-07-13T10:45:10.457Z,40.16
2018-07-13T10:47:39.575Z,39.92
2018-07-13T10:50:08.768Z,40.01
2018-07-13T10:52:37.880Z,39.71
2018-07-13T10:55:07.100Z,39.94
2018-07-13T10:57:36.274Z,39.02
2018-07-13T11:00:05.400Z,38.92
2018-07-13T11:02:34.520Z,39.00
2018-07-13T11:05:03.657Z,38.94
2018-07-13T11:07:33.000Z,39.44
2018-07-13T11:10:02.161Z,39.30
2018-07-13T11:12:31.301Z,39.31
2018-07-13T11:15:00.512Z,39.34
2018-07-13T11:17:29.656Z,39.34
2018-07-13T11:19:58.849Z,40.02
2018-07-13T11:22:28.020Z,39.76
2018-07-13T11:24:57.177Z,40.00
2018-07-13T11:27:26.370Z,40.13
2018-07-13T11:29:55.509Z,39.10
2018-07-13T11:32:24.624Z,38.84
2018-07-13T11:34:53.763Z,39.65
2018-07-13T11:37:23.002Z,38.40
2018-07-13T11:39:52.162Z,37.54
2018-07-13T11:42:21.352Z,38.78
2018-07-13T11:44:50.496Z,38.79
2018-07-13T11:47:19.833Z,38.75
2018-07-13T11:49:49.201Z,38.41
2018-07-13T11:52:18.383Z,38.43
2018-07-13T11:54:47.537Z,38.70
2018-07-13T11:57:16.636Z,37.96
2018-07-13T11:59:45.779Z,38.36
2018-07-13T12:02:14.940Z,38.61
2018-07-13T12:04:44.106Z,39.13
2018-07-13T12:07:13.244Z,37.34
2018-07-13T12:09:42.432Z,37.64
2018-07-13T12:12:11.557Z,37.49
2018-07-13T12:14:40.713Z,36.93
2018-07-13T12:17:09.836Z,38.37
2018-07-13T12:19:38.819Z,37.75
2018-07-13T12:22:07.959Z,37.15
2018-07-13T12:24:37.129Z,37.79
2018-07-13T12:27:06.449Z,37.59
2018-07-13T12:29:35.556Z,36.97
2018-07-13T12:32:04.671Z,36.55
2018-07-13T12:34:33.811Z,35.88
2018-07-13T12:37:02.977Z,36.67
2018-07-13T12:39:32.175Z,36.61
2018-07-13T12:42:01.351Z,35.65
2018-07-13T12:44:31.480Z,36.53
2018-07-13T12:47:00.602Z,36.10
2018-07-13T12:49:29.751Z,36.67
2018-07-13T12:51:58.893Z,36.41
2018-07-13T12:54:28.181Z,36.12
2018-07-13T12:56:57.301Z,35.61
2018-07-13T12:59:26.567Z,35.79
2018-07-13T13:01:55.757Z,35.73
2018-07-13T13:04:24.935Z,35.18
2018-07-13T13:06:54.083Z,35.04
2018-07-13T13:09:23.250Z,34.04
2018-07-13T13:11:52.428Z,34.84
2018-07-13T13:14:21.605Z,35.40
2018-07-13T13:16:50.769Z,35.76
2018-07-13T13:19:20.077Z,34.54
2018-07-13T13:21:49.331Z,33.52
2018-07-13T13:24:18.452Z,34.47
2018-07-13T13:26:47.600Z,33.67
2018-07-13T13:29:16.756Z,34.10
2018-07-13T13:31:45.946Z,34.19
2018-07-13T13:34:15.089Z,35.23
2018-07-13T13:36:44.215Z,35.08
2018-07-13T13:39:13.470Z,35.03
2018-07-13T13:41:42.653Z,35.13
2018-07-13T13:44:11.824Z,34.41
2018-07-13T13:46:40.980Z,35.15
2018-07-13T13:49:10.290Z,34.00
2018-07-13T13:51:39.404Z,34.23
2018-07-13T13:54:08.515Z,34.06
2018-07-13T13:56:37.665Z,35.24
2018-07-13T13:59:06.851Z,34.42
2018-07-13T14:01:36.038Z,34.69
2018-07-13T14:04:05.184Z,33.94
2018-07-13T14:06:34.366Z,34.53
2018-07-13T14:09:04.548Z,34.21
2018-07-13T14:11:33.764Z,33.14
2018-07-13T14:14:02.905Z,34.64
2018-07-13T14:16:33.126Z,34.07
2018-07-13T14:19:02.304Z,34.25
2018-07-13T14:21:31.415Z,33.78
2018-07-13T14:24:00.591Z,34.10
2018-07-13T14:26:29.754Z,34.89
2018-07-13T14:28:58.941Z,34.25
2018-07-13T14:31:28.053Z,34.14
2018-07-13T14:33:57.188Z,33.12
2018-07-13T14:39:23.167Z,33.62
2018-07-13T14:41:52.346Z,34.39
2018-07-13T14:44:21.461Z,33.90
2018-07-13T14:46:50.719Z,34.74
2018-07-13T14:49:19.767Z,34.37
2018-07-13T14:51:48.918Z,34.45
2018-07-13T14:54:18.058Z,33.26
2018-07-13T14:56:47.204Z,33.44
2018-07-13T14:59:16.344Z,34.74
2018-07-13T15:01:45.449Z,34.87
2018-07-13T15:04:14.634Z,34.81
2018-07-13T15:06:43.736Z,35.20
2018-07-13T15:09:12.753Z,34.55
2018-07-13T15:11:41.896Z,34.14
2018-07-13T15:14:11.083Z,33.87
2018-07-13T15:16:40.275Z,33.94
2018-07-13T15:19:11.000Z,35.11
2018-07-13T15:21:40.180Z,34.43
2018-07-13T15:24:09.356Z,35.86
2018-07-13T15:26:38.507Z,36.24
2018-07-13T15:29:07.718Z,35.87
2018-07-13T15:31:36.818Z,35.34
2018-07-13T15:34:06.269Z,35.07
2018-07-13T15:36:35.442Z,34.95
2018-07-13T15:39:05.052Z,34.88
2018-07-13T15:41:34.168Z,35.55
2018-07-13T15:44:03.079Z,36.50
2018-07-13T15:46:32.323Z,36.21
2018-07-13T15:49:01.527Z,36.68
2018-07-13T15:51:30.725Z,36.90
2018-07-13T15:53:59.917Z,36.92
2018-07-13T15:56:29.062Z,37.10
2018-07-13T15:58:58.312Z,36.99
2018-07-13T16:01:27.409Z,37.45
2018-07-13T16:03:56.591Z,37.33
2018-07-13T16:06:25.830Z,37.70
2018-07-13T16:08:54.931Z,37.32
2018-07-13T16:11:23.859Z,37.29
2018-07-13T16:13:53.081Z,36.62
2018-07-13T16:16:22.222Z,36.71
2018-07-13T16:18:51.423Z,36.74
2018-07-13T16:21:20.548Z,37.51
2018-07-13T16:23:49.679Z,37.70
2018-07-13T16:26:18.814Z,36.89
2018-07-13T16:28:47.854Z,37.67
2018-07-13T16:31:17.025Z,37.73
2018-07-13T16:33:46.230Z,37.95
2018-07-13T16:36:15.376Z,38.28
2018-07-13T16:38:45.103Z,38.28
2018-07-13T16:41:14.272Z,38.44
2018-07-13T16:43:44.544Z,38.17
2018-07-13T16:46:13.701Z,37.84
2018-07-13T16:48:42.817Z,38.50
2018-07-13T16:51:11.964Z,38.55
2018-07-13T16:53:41.102Z,38.61
2018-07-13T16:56:10.272Z,38.90
2018-07-13T16:58:39.437Z,39.52
2018-07-13T17:01:08.584Z,39.82
2018-07-13T17:03:37.800Z,39.87
2018-07-13T17:06:06.879Z,39.83
2018-07-13T17:08:35.970Z,39.86
2018-07-13T17:11:05.094Z,40.43
2018-07-13T17:13:37.185Z,40.74
2018-07-13T17:16:06.583Z,40.12
2018-07-13T17:18:36.529Z,40.30
2018-07-13T17:21:05.643Z,40.48
2018-07-13T17:23:34.755Z,41.14
2018-07-13T17:26:03.914Z,41.22
2018-07-13T17:28:33.130Z,40.70
2018-07-13T17:31:02.247Z,41.75
2018-07-13T17:33:31.340Z,41.09
2018-07-13T17:36:00.475Z,41.67
2018-07-13T17:38:29.668Z,41.37
2018-07-13T17:40:58.845Z,41.25
2018-07-13T17:43:27.937Z,41.72
2018-07-13T17:45:57.046Z,42.37
2018-07-13T17:48:26.155Z,42.10
2018-07-13T17:50:55.286Z,41.51
2018-07-13T17:53:24.422Z,42.96
2018-07-13T17:55:53.562Z,42.75
2018-07-13T17:58:22.638Z,42.53
2018-07-13T18:00:51.951Z,42.79
2018-07-13T18:03:20.952Z,43.10
2018-07-13T18:05:50.055Z,43.12
2018-07-13T18:08:19.168Z,43.76
2018-07-13T18:10:48.293Z,44.20
2018-07-13T18:13:17.406Z,43.70
2018-07-13T18:15:46.509Z,44.12
2018-07-13T18:18:15.609Z,44.03
2018-07-13T18:20:44.724Z,44.18
2018-07-13T18:23:13.801Z,44.44
2018-07-13T18:25:42.910Z,44.53
2018-07-13T18:28:12.055Z,44.99
2018-07-13T18:30:41.102Z,44.85
2018-07-13T18:33:10.224Z,45.27
2018-07-13T18:35:39.325Z,46.02
2018-07-13T18:38:08.555Z,46.07
2018-07-13T18:40:37.661Z,46.33
2018-07-13T18:43:06.866Z,46.30
2018-07-13T18:45:36.012Z,47.00
2018-07-13T18:48:05.178Z,47.07
2018-07-13T18:50:34.302Z,46.97
2018-07-13T18:53:03.488Z,47.09
2018-07-13T18:55:32.591Z,47.30
2018-07-13T18:58:01.649Z,47.43
2018-07-13T19:00:30.796Z,47.57
2018-07-13T19:02:59.930Z,47.71
2018-07-13T19:05:29.056Z,47.96
2018-07-13T19:07:58.204Z,48.19
2018-07-13T19:10:27.317Z,48.10
2018-07-13T19:12:56.433Z,48.67
2018-07-13T19:15:25.560Z,48.78
2018-07-13T19:17:54.720Z,48.50
2018-07-13T19:20:25.982Z,48.98
2018-07-13T19:22:55.292Z,49.60
2018-07-13T19:25:24.423Z,49.81
2018-07-13T19:27:53.720Z,50.21
2018-07-13T19:30:23.004Z,50.23
2018-07-13T19:32:52.054Z,50.58
2018-07-13T19:35:21.175Z,51.01
2018-07-13T19:37:50.346Z,50.74
2018-07-13T19:40:19.510Z,51.32
2018-07-13T19:42:48.483Z,51.60
2018-07-13T19:45:17.606Z,51.88
2018-07-13T19:47:46.858Z,51.89
2018-07-13T19:50:15.977Z,52.47
2018-07-13T19:52:45.195Z,52.43
2018-07-13T19:55:14.273Z,53.05
2018-07-13T19:57:43.380Z,53.10
2018-07-13T20:00:12.546Z,53.47
2018-07-13T20:02:41.629Z,53.07
2018-07-13T20:05:10.763Z,53.47
2018-07-13T20:07:39.923Z,53.39
2018-07-13T20:10:09.128Z,53.56
2018-07-13T20:12:38.075Z,54.04
2018-07-13T20:15:07.208Z,53.93
2018-07-13T20:17:36.375Z,54.12
2018-07-13T20:20:08.260Z,54.50
2018-07-13T20:22:37.907Z,54.20
2018-07-13T20:25:07.702Z,54.65
2018-07-13T20:27:37.813Z,54.67
2018-07-13T20:30:07.347Z,54.98
2018-07-13T20:32:36.486Z,54.94
2018-07-13T20:35:05.646Z,55.13
2018-07-13T20:37:35.213Z,55.39
2018-07-13T20:40:04.331Z,55.44
2018-07-13T20:42:33.431Z,55.53
2018-07-13T20:45:02.572Z,55.37
2018-07-13T20:47:31.752Z,55.63
2018-07-13T20:50:00.836Z,55.71
2018-07-13T20:52:29.864Z,55.47
2018-07-13T20:54:59.092Z,55.38
2018-07-13T20:57:28.243Z,55.72
2018-07-13T20:59:57.402Z,56.07
2018-07-13T21:02:26.574Z,55.76
2018-07-13T21:04:55.683Z,55.96
2018-07-13T21:07:24.809Z,56.04
2018-07-13T21:09:53.946Z,56.17
2018-07-13T21:12:23.170Z,55.98
2018-07-13T21:14:52.287Z,56.71
2018-07-13T21:17:21.366Z,56.43
2018-07-13T21:19:50.496Z,56.26
2018-07-13T21:22:19.553Z,56.37
2018-07-13T21:24:48.688Z,56.33
2018-07-13T21:27:17.915Z,56.69
2018-07-13T21:29:47.106Z,56.61
2018-07-13T21:32:16.260Z,56.91
2018-07-13T21:34:45.449Z,57.05
2018-07-13T21:37:14.536Z,56.98
2018-07-13T21:39:43.685Z,57.17
2018-07-13T21:42:12.826Z,57.04
2018-07-13T21:44:41.977Z,57.11
2018-07-13T21:47:11.364Z,57.20
2018-07-13T21:49:40.486Z,57.49
2018-07-13T21:52:09.590Z,57.72
2018-07-13T21:54:38.722Z,57.54
2018-07-13T21:57:07.939Z,57.63
2018-07-13T21:59:37.142Z,58.12
2018-07-13T22:02:06.311Z,58.02
2018-07-13T22:04:35.454Z,58.16
2018-07-13T22:07:04.631Z,58.16
2018-07-13T22:09:33.756Z,58.47
2018-07-13T22:12:02.912Z,58.55
2018-07-13T22:14:32.061Z,58.76
2018-07-13T22:17:01.204Z,58.89
2018-07-13T22:19:30.295Z,58.79
2018-07-13T22:21:59.434Z,58.99
2018-07-13T22:24:28.525Z,59.28
2018-07-13T22:26:57.675Z,59.41
2018-07-13T22:29:26.779Z,59.82
2018-07-13T22:31:55.927Z,59.63
2018-07-13T22:34:25.035Z,59.94
2018-07-13T22:36:54.215Z,59.97
2018-07-13T22:39:23.294Z,60.40
2018-07-13T22:41:52.184Z,60.48
2018-07-13T22:44:21.324Z,60.42
2018-07-13T22:46:50.385Z,60.74
2018-07-13T22:49:19.602Z,60.97
2018-07-13T22:51:48.760Z,61.01
2018-07-13T22:54:17.925Z,61.08
2018-07-13T22:56:47.005Z,61.29
2018-07-13T22:59:16.215Z,61.19
2018-07-13T23:01:45.397Z,61.21
2018-07-13T23:04:14.510Z,61.72
2018-07-13T23:06:43.636Z,61.63
2018-07-13T23:09:12.832Z,61.80
2018-07-13T23:11:41.947Z,61.86
2018-07-13T23:14:11.081Z,62.19
2018-07-13T23:16:40.207Z,62.30
2018-07-13T23:19:09.340Z,62.37
2018-07-13T23:21:38.531Z,62.43
2018-07-13T23:24:07.690Z,62.59
2018-07-13T23:26:36.825Z,62.70
2018-07-13T23:29:06.032Z,62.71
2018-07-13T23:31:35.141Z,62.98
2018-07-13T23:34:04.250Z,62.97
2018-07-13T23:36:33.321Z,63.30
2018-07-13T23:39:02.475Z,63.46
2018-07-13T23:41:31.616Z,63.64
2018-07-13T23:44:00.702Z,64.06
2018-07-13T23:46:29.836Z,64.15
2018-07-13T23:48:58.973Z,64.22
2018-07-13T23:51:28.655Z,64.25
2018-07-13T23:53:57.749Z,64.55
2018-07-13T23:56:26.844Z,64.79
2018-07-13T23:58:56.008Z,64.76
